Weather reports worldwide

Advertisment
Cazalla de la Sierra, Spain (8392): temperature & dewpoint: 08.11.2018 13:00:00 - 14.11.2018 13:00:00 (CET)Cazalla de la Sierra, Spain (8392): wind speed & gusts: 08.11.2018 13:00:00 - 14.11.2018 13:00:00 (CET)Cazalla de la Sierra, Spain (8392): wind direction: 08.11.2018 13:00:00 - 14.11.2018 13:00:00 (CET)Cazalla de la Sierra, Spain (8392): reduced air pressure: 08.11.2018 13:00:00 - 14.11.2018 13:00:00 (CET)Cazalla de la Sierra, Spain (8392): precipitation: 08.11.2018 13:00:00 - 14.11.2018 13:00:00 (CET)
Date & Time tt [°C] td [°C] ff [km/h] ff [kn] fx [km/h] fx [kn] dd ppp [hPa] rr [mm]
14.11.2018 13:00:00 - - - - - - - - -
14.11.2018 12:00:00 15,4 8,4 9 5 24 13 E 1018,1 0,0
14.11.2018 11:00:00 14,2 8,8 6 4 21 11 E 1018,8 0,0
14.11.2018 10:00:00 12,9 8,8 3 2 11 6 ESE 1019,0 0,0
14.11.2018 09:00:00 12,1 8,4 4 2 8 5 ESE 1019,4 0,0
14.11.2018 08:00:00 11,5 8,9 3 2 9 5 ESE 1019,3 0,0
14.11.2018 07:00:00 11,0 8,8 8 4 10 5 E 1019,4 -
14.11.2018 06:00:00 11,0 8,8 7 4 11 6 ENE 1019,7 0,0
14.11.2018 05:00:00 9,7 8,3 4 2 9 5 E 1020,1 0,0
14.11.2018 04:00:00 10,5 9,0 3 1 8 4 ESE 1020,4 0,0
14.11.2018 03:00:00 9,9 8,7 3 2 6 3 ESE 1021,2 0,0
14.11.2018 02:00:00 9,7 8,3 2 1 5 3 SE 1021,7 0,0
14.11.2018 01:00:00 10,0 8,7 2 1 5 3 SE 1021,8 -
14.11.2018 00:00:00 10,1 8,7 0 0 8 4 SSE 1021,9 0,0
13.11.2018 23:00:00 9,6 8,0 3 1 6 3 E 1022,0 0,0
13.11.2018 22:00:00 10,4 8,7 1 0 5 3 SE 1021,8 0,0
13.11.2018 21:00:00 11,3 9,6 2 1 5 3 SE 1021,8 0,0
13.11.2018 20:00:00 11,9 10,2 1 0 5 3 SSE 1021,6 0,0
13.11.2018 19:00:00 - - - - - - - - -
13.11.2018 18:00:00 15,9 10,0 0 0 14 8 E 1019,6 0,0
13.11.2018 17:00:00 17,4 9,8 7 4 15 8 S 1019,0 0,0
13.11.2018 16:00:00 19,8 8,8 3 1 13 7 NE 1018,0 0,0
13.11.2018 15:00:00 19,0 8,9 3 1 12 6 ENE 1018,4 0,0
13.11.2018 14:00:00 18,3 9,0 4 2 12 7 NNE 1018,8 0,0
13.11.2018 13:00:00 16,5 9,7 6 4 11 6 ENE 1019,8 -
13.11.2018 12:00:00 15,2 9,0 5 3 10 5 E 1020,8 0,0
13.11.2018 11:00:00 13,0 10,2 0 0 10 5 N 1021,2 0,0
13.11.2018 10:00:00 11,7 9,4 5 3 10 5 E 1021,0 0,0
13.11.2018 09:00:00 10,5 8,9 4 2 11 6 E 1021,2 0,0
13.11.2018 08:00:00 9,6 8,4 3 1 8 4 ESE 1020,7 0,0
13.11.2018 07:00:00 9,0 7,6 0 0 5 3 SE 1020,7 -
13.11.2018 06:00:00 9,8 8,4 0 0 5 3 NW 1020,3 0,0
13.11.2018 05:00:00 10,8 9,2 2 1 9 5 ESE 1019,8 0,0
13.11.2018 04:00:00 11,0 9,4 2 1 9 5 SE 1019,7 0,0
13.11.2018 03:00:00 11,1 9,6 3 2 8 5 ESE 1019,6 0,0
13.11.2018 02:00:00 10,6 9,2 3 2 5 3 ESE 1020,1 0,0
13.11.2018 01:00:00 10,6 9,0 0 0 5 3 ESE 1019,9 -
13.11.2018 00:00:00 11,6 9,7 1 1 10 5 ESE 1019,2 0,0
12.11.2018 23:00:00 11,7 9,4 5 3 10 6 ESE 1018,8 0,0
12.11.2018 22:00:00 11,9 10,2 3 2 8 4 E 1018,4 0,0
12.11.2018 21:00:00 11,8 10,2 0 0 4 2 N 1017,6 0,0
12.11.2018 20:00:00 12,0 10,4 1 0 6 4 SE 1017,8 0,0
12.11.2018 19:00:00 12,2 10,6 0 0 5 3 NW 1017,1 -
12.11.2018 18:00:00 12,4 10,8 1 1 8 5 W 1016,5 0,0
12.11.2018 17:00:00 12,7 10,6 4 2 8 4 W 1015,7 0,0
12.11.2018 16:00:00 12,8 10,5 4 2 12 6 S 1015,0 0,1
12.11.2018 15:00:00 13,1 10,8 4 2 13 7 SSW 1015,0 0,2
12.11.2018 14:00:00 12,4 10,3 3 2 16 9 SSE 1014,7 0,5
12.11.2018 13:00:00 12,4 10,3 7 4 23 12 S 1015,7 -
12.11.2018 12:00:00 12,3 10,2 3 1 16 9 SE 1015,0 1,4
12.11.2018 11:00:00 11,6 9,6 3 2 9 5 ESE 1015,4 2,6
12.11.2018 10:00:00 12,0 10,5 4 2 10 5 E 1014,8 1,9
12.11.2018 09:00:00 11,7 10,3 1 1 11 6 E 1014,5 3,3
12.11.2018 08:00:00 11,7 10,3 5 3 17 9 S 1013,8 11,9
12.11.2018 07:00:00 12,1 10,9 3 2 25 14 S 1012,9 -
12.11.2018 06:00:00 12,3 11,0 8 5 22 12 SSE 1011,9 1,5
12.11.2018 05:00:00 12,4 11,0 6 3 21 12 SE 1011,1 1,6
12.11.2018 04:00:00 12,5 11,1 10 6 24 13 S 1012,0 1,9
12.11.2018 03:00:00 12,8 11,2 5 3 18 10 SSE 1012,1 0,8
12.11.2018 02:00:00 12,9 11,4 5 3 18 10 SSW 1012,5 0,1
12.11.2018 01:00:00 12,8 11,2 8 4 18 10 SSW 1012,9 -
12.11.2018 00:00:00 13,0 11,2 6 3 19 10 SSW 1012,6 0,0
11.11.2018 23:00:00 12,9 10,8 6 3 19 10 SW 1012,6 0,0
11.11.2018 22:00:00 12,9 10,4 4 2 18 10 SW 1012,3 0,0
11.11.2018 21:00:00 13,1 10,6 8 4 24 13 W 1012,2 0,0
11.11.2018 20:00:00 14,3 12,0 6 3 18 10 W 1011,8 0,0
11.11.2018 19:00:00 15,0 11,6 6 4 22 12 WSW 1011,3 -
11.11.2018 18:00:00 14,8 11,8 1 1 13 7 S 1011,2 0,0
11.11.2018 17:00:00 15,5 12,2 4 2 13 7 S 1011,3 0,0
11.11.2018 16:00:00 16,2 12,1 5 3 14 8 SSE 1011,4 0,0
11.11.2018 15:00:00 15,1 12,6 6 3 16 8 SSE 1011,9 0,0
11.11.2018 14:00:00 14,3 12,6 6 3 21 12 SSE 1013,3 0,1
11.11.2018 13:00:00 14,0 12,8 6 3 17 9 SSE 1014,2 -
11.11.2018 12:00:00 13,7 12,6 6 3 15 8 SSE 1015,3 0,0
11.11.2018 11:00:00 13,8 12,5 4 2 13 7 SSE 1015,9 0,0
11.11.2018 10:00:00 13,3 12,0 1 1 10 6 SSE 1016,5 0,0
11.11.2018 09:00:00 13,2 11,9 2 1 10 5 S 1016,3 0,0
11.11.2018 08:00:00 12,6 11,2 0 0 5 3 S 1016,2 0,0
11.11.2018 07:00:00 13,3 12,0 1 0 13 7 WNW 1016,1 -
11.11.2018 06:00:00 13,4 12,4 3 2 12 6 WNW 1016,1 0,2
11.11.2018 05:00:00 13,6 12,6 3 1 15 8 SW 1015,9 0,1
11.11.2018 04:00:00 13,5 12,5 6 4 17 9 SW 1016,2 1,4
11.11.2018 03:00:00 13,6 12,6 5 3 13 7 SW 1016,7 1,2
11.11.2018 02:00:00 13,7 12,7 6 3 19 10 WSW 1016,9 1,2
11.11.2018 01:00:00 13,6 12,6 5 3 16 8 SSW 1017,3 -
11.11.2018 00:00:00 13,5 12,5 4 2 18 10 W 1017,8 0,3
10.11.2018 23:00:00 13,4 12,4 7 4 17 9 SSW 1018,1 0,5
10.11.2018 22:00:00 13,2 12,2 10 5 21 12 SSW 1017,9 0,2
10.11.2018 21:00:00 13,1 12,1 7 4 21 11 SSW 1017,8 0,0
10.11.2018 20:00:00 13,0 12,1 6 3 22 12 SW 1017,6 0,0
10.11.2018 19:00:00 13,0 11,8 6 4 19 11 SSW 1017,7 -
10.11.2018 18:00:00 12,9 11,3 8 4 18 10 SW 1017,6 0,0
10.11.2018 17:00:00 13,0 10,9 6 3 18 10 S 1017,7 0,0
10.11.2018 16:00:00 13,0 10,8 6 3 19 10 SSW 1017,6 0,0
10.11.2018 15:00:00 12,8 10,3 8 4 17 9 SW 1017,8 0,0
10.11.2018 14:00:00 12,7 10,0 9 5 21 12 W 1018,1 0,0
10.11.2018 13:00:00 12,2 9,9 7 4 22 12 WSW 1018,7 -
10.11.2018 12:00:00 10,8 9,9 4 2 18 10 WSW 1020,0 0,0
10.11.2018 11:00:00 10,7 9,4 5 3 16 9 W 1020,5 0,0
10.11.2018 10:00:00 10,6 9,3 4 2 13 7 W 1020,3 0,0
10.11.2018 09:00:00 10,1 8,5 5 3 11 6 WNW 1020,2 0,0
10.11.2018 08:00:00 9,9 8,1 2 1 7 4 NW 1019,7 0,0
10.11.2018 07:00:00 10,0 7,7 1 1 8 4 NW 1019,9 -
10.11.2018 06:00:00 9,9 7,7 3 2 6 3 WNW 1020,0 0,0
10.11.2018 05:00:00 9,4 7,8 0 0 0 0 N 1020,6 0,0
10.11.2018 04:00:00 9,3 7,7 0 0 4 2 N 1021,1 0,0
10.11.2018 03:00:00 9,0 7,6 0 0 0 0 N 1021,3 0,0
10.11.2018 02:00:00 8,5 7,1 0 0 0 0 N 1021,9 0,0
10.11.2018 01:00:00 7,8 6,2 0 0 2 1 N 1022,5 -
10.11.2018 00:00:00 7,4 5,9 3 2 5 3 E 1023,0 0,0
09.11.2018 23:00:00 8,0 6,1 1 1 5 3 ESE 1023,2 0,0
09.11.2018 22:00:00 8,1 6,4 1 0 3 1 ESE 1023,3 0,0
09.11.2018 21:00:00 8,3 6,2 0 0 0 0 N 1023,4 0,0
09.11.2018 20:00:00 8,6 6,2 0 0 3 2 N 1022,9 0,0
09.11.2018 19:00:00 9,3 6,1 1 1 5 3 SE 1022,3 -
09.11.2018 18:00:00 12,0 4,3 2 1 16 9 W 1021,5 0,0
09.11.2018 17:00:00 13,3 3,4 6 4 23 12 NW 1021,3 0,0
09.11.2018 16:00:00 14,2 2,1 11 6 23 13 WNW 1020,8 0,0
09.11.2018 15:00:00 13,9 1,9 13 7 24 13 W 1021,0 0,0
09.11.2018 14:00:00 13,4 3,2 10 5 21 11 WNW 1022,0 0,0
09.11.2018 13:00:00 13,5 4,8 12 6 23 12 W 1022,7 -
09.11.2018 12:00:00 11,4 5,5 15 8 26 14 WNW 1023,7 0,0
09.11.2018 11:00:00 10,5 6,8 11 6 21 11 WNW 1023,8 0,0
09.11.2018 10:00:00 8,8 6,5 7 4 16 9 WNW 1024,2 0,0
09.11.2018 09:00:00 7,0 5,6 4 2 11 6 NW 1024,1 0,0
09.11.2018 08:00:00 6,1 4,8 1 1 16 9 NNW 1023,6 0,0
09.11.2018 07:00:00 6,7 5,5 9 5 19 11 WNW 1022,9 -
09.11.2018 06:00:00 4,6 3,6 0 0 10 5 N 1023,2 0,0
09.11.2018 05:00:00 4,3 3,2 0 0 4 2 N 1022,7 0,0
09.11.2018 04:00:00 5,0 3,9 0 0 5 3 S 1022,4 0,0
09.11.2018 03:00:00 5,4 4,1 0 0 7 4 E 1022,1 0,0
09.11.2018 02:00:00 6,5 4,8 4 2 16 9 W 1021,2 0,0
09.11.2018 01:00:00 7,8 5,5 3 1 22 12 W 1020,8 -
09.11.2018 00:00:00 8,4 6,1 10 5 22 12 WNW 1020,4 0,0
08.11.2018 23:00:00 8,9 6,7 9 5 19 11 NW 1019,9 0,0
08.11.2018 22:00:00 9,3 6,7 11 6 29 16 WNW 1019,0 0,1
08.11.2018 21:00:00 8,9 5,6 21 11 48 26 WNW 1018,8 3,4
08.11.2018 20:00:00 12,6 11,0 7 4 24 13 W 1016,3 0,0
08.11.2018 19:00:00 12,7 10,6 5 3 18 10 SW 1015,6 -
08.11.2018 18:00:00 13,1 10,4 5 3 18 10 W 1015,0 0,0
08.11.2018 17:00:00 13,3 11,2 11 6 19 11 W 1014,8 0,0
08.11.2018 16:00:00 13,4 11,8 10 5 21 11 WNW 1014,3 1,2
08.11.2018 15:00:00 13,3 12,0 5 3 18 10 W 1014,3 0,5
08.11.2018 14:00:00 12,7 11,8 6 3 16 9 SSW 1015,2 0,0
08.11.2018 13:00:00 12,8 11,3 5 3 16 8 SSW 1016,1 -

tt = temperature
td = dewpoint
ff = wind speed
fx = gusts
dd = wind direction
ppp = reduced air pressure
rr = precipitation

Next stations